Terminal Aerodrome Forecast
Issued by NWS

Home | Current Version | Previous Version | Text Only | Print | Product List | Glossary On
Versions: 1 2 3 4 5 6 7 8 9 10 11 12 13
000
FTUS45 KABQ 202300
TAFFMN
TAF
KFMN 202336Z 2100/2124 16007KT P6SM VCSH SCT100
     FM210400 11012KT P6SM VCSH BKN090
     FM210900 09009KT P6SM BKN120
     FM211900 13011KT P6SM BKN070
     FM212200 15012KT P6SM VCTS OVC070CB=

USA.gov is the U.S. government's official web portal to all federal, state and local government web resources and services.